createdAt,value
2016-03-31T00:00:58.288Z,12.83
2016-03-31T00:01:58.322Z,12.78
2016-03-31T00:02:58.340Z,12.82
2016-03-31T00:03:58.359Z,12.85
2016-03-31T00:04:58.362Z,12.85
2016-03-31T00:05:58.411Z,12.82
2016-03-31T00:06:58.397Z,12.78
2016-03-31T00:07:58.416Z,12.78
2016-03-31T00:08:58.419Z,12.76
2016-03-31T00:09:58.469Z,12.73
2016-03-31T00:10:58.455Z,12.79
2016-03-31T00:11:58.474Z,12.75
2016-03-31T00:12:58.492Z,12.75
2016-03-31T00:13:58.542Z,12.79
2016-03-31T00:14:58.529Z,12.73
2016-03-31T00:15:58.563Z,12.75
2016-03-31T00:16:58.565Z,12.68
2016-03-31T00:17:58.598Z,12.82
2016-03-31T00:18:58.584Z,12.76
2016-03-31T00:19:58.644Z,12.76
2016-03-31T00:20:58.616Z,12.73
2016-03-31T00:21:58.649Z,12.78
2016-03-31T00:22:58.667Z,12.6
2016-03-31T00:23:58.671Z,12.61
2016-03-31T00:24:58.704Z,12.64
2016-03-31T00:25:58.707Z,12.7
2016-03-31T00:26:58.710Z,12.67
2016-03-31T00:27:58.759Z,12.62
2016-03-31T00:28:58.793Z,12.65
2016-03-31T00:29:58.765Z,12.67
2016-03-31T00:30:58.803Z,12.64
2016-03-31T00:31:58.822Z,12.65
2016-03-31T00:32:58.827Z,12.6
2016-03-31T00:33:58.845Z,12.57
2016-03-31T00:34:58.848Z,12.57
2016-03-31T00:35:58.898Z,12.49
2016-03-31T00:36:58.901Z,12.5
2016-03-31T00:37:58.903Z,12.49
2016-03-31T00:38:58.921Z,12.47
2016-03-31T00:39:58.925Z,12.4
2016-03-31T00:40:58.942Z,12.35
2016-03-31T00:41:58.961Z,12.35
2016-03-31T00:42:58.979Z,12.42
2016-03-31T00:43:58.997Z,12.35
2016-03-31T00:44:59.016Z,12.4
2016-03-31T00:45:59.050Z,12.32
2016-03-31T00:46:59.052Z,12.32
2016-03-31T00:47:59.071Z,12.27
2016-03-31T00:48:59.105Z,12.24
2016-03-31T00:49:59.122Z,12.22
2016-03-31T00:50:59.142Z,12.17
2016-03-31T00:51:59.160Z,12.21
2016-03-31T00:52:59.147Z,12.2
2016-03-31T00:53:59.165Z,12.21
2016-03-31T00:54:59.183Z,12.22
2016-03-31T00:55:59.201Z,12.18
2016-03-31T00:56:59.204Z,12.17
2016-03-31T00:57:59.254Z,12.2
2016-03-31T00:58:59.241Z,12.13
2016-03-31T00:59:59.259Z,12.12
2016-03-31T01:00:59.262Z,12.07
2016-03-31T01:01:59.327Z,12.07
2016-03-31T01:02:59.314Z,12.15
2016-03-31T01:03:59.317Z,12.15
2016-03-31T01:04:59.335Z,12.13
2016-03-31T01:05:59.369Z,12.09
2016-03-31T01:06:59.372Z,12.1
2016-03-31T01:07:59.375Z,12.12
2016-03-31T01:08:59.423Z,12
2016-03-31T01:09:59.412Z,11.91
2016-03-31T01:10:59.429Z,11.99
2016-03-31T01:11:59.464Z,12.02
2016-03-31T01:12:59.481Z,12.03
2016-03-31T01:13:59.484Z,12.03
2016-03-31T01:14:59.503Z,11.95
2016-03-31T01:15:59.521Z,11.99
2016-03-31T01:16:59.539Z,11.97
2016-03-31T01:17:59.542Z,12.02
2016-03-31T01:18:59.575Z,11.87
2016-03-31T01:19:59.594Z,11.95
2016-03-31T01:20:59.627Z,11.83
2016-03-31T01:21:59.443Z,11.8
2016-03-31T01:22:59.649Z,11.8
2016-03-31T01:23:59.636Z,11.81
2016-03-31T01:24:59.654Z,11.75
2016-03-31T01:25:59.673Z,11.69
2016-03-31T01:26:59.753Z,11.69
2016-03-31T01:27:59.693Z,11.69
2016-03-31T01:28:59.743Z,11.73
2016-03-31T01:29:59.729Z,11.78
2016-03-31T01:30:59.748Z,11.69
2016-03-31T01:31:59.767Z,11.72
2016-03-31T01:32:59.770Z,11.6
2016-03-31T01:33:59.944Z,11.7
2016-03-31T01:34:59.806Z,11.63
2016-03-31T01:35:59.840Z,11.63
2016-03-31T01:36:59.842Z,11.62
2016-03-31T01:37:59.876Z,11.55
2016-03-31T01:38:59.880Z,11.51
2016-03-31T01:39:59.898Z,11.63
2016-03-31T01:40:59.884Z,11.54
2016-03-31T01:41:59.951Z,11.6
2016-03-31T01:42:59.937Z,11.52
2016-03-31T01:43:59.987Z,11.54
2016-03-31T01:44:59.958Z,11.54
2016-03-31T01:45:59.992Z,11.54
2016-03-31T01:46:59.995Z,11.55
2016-03-31T01:48:00.028Z,11.54
2016-03-31T01:49:00.031Z,11.48
2016-03-31T01:50:00.081Z,11.5
2016-03-31T01:51:00.068Z,11.44
2016-03-31T01:52:00.086Z,11.54
2016-03-31T01:53:00.089Z,11.52
2016-03-31T01:54:00.123Z,11.5
2016-03-31T01:55:00.204Z,11.45
2016-03-31T01:56:00.175Z,11.45
2016-03-31T01:57:00.162Z,11.32
2016-03-31T01:58:00.165Z,11.41
2016-03-31T01:59:00.183Z,11.36
2016-03-31T02:00:00.202Z,11.45
2016-03-31T02:01:00.204Z,11.33
2016-03-31T02:02:00.254Z,11.35
2016-03-31T02:03:00.241Z,11.3
2016-03-31T02:04:00.259Z,11.3
2016-03-31T02:05:00.278Z,11.35
2016-03-31T02:06:00.281Z,11.29
2016-03-31T02:07:00.298Z,11.23
2016-03-31T02:08:00.326Z,11.25
2016-03-31T02:09:00.344Z,11.19
2016-03-31T02:10:00.362Z,11.27
2016-03-31T02:11:00.366Z,11.27
2016-03-31T02:12:00.383Z,11.29
2016-03-31T02:13:00.418Z,11.23
2016-03-31T02:14:00.420Z,11.17
2016-03-31T02:15:00.423Z,11.18
2016-03-31T02:16:00.440Z,11.19
2016-03-31T02:17:00.459Z,11.12
2016-03-31T02:18:00.465Z,11.26
2016-03-31T02:19:00.484Z,11.17
2016-03-31T02:20:00.502Z,11.15
2016-03-31T02:21:00.520Z,11.17
2016-03-31T02:22:00.523Z,11.12
2016-03-31T02:23:00.540Z,11.07
2016-03-31T02:24:00.559Z,11.17
2016-03-31T02:25:00.592Z,11.07
2016-03-31T02:26:00.611Z,11
2016-03-31T02:27:00.614Z,11
2016-03-31T02:28:00.663Z,11
2016-03-31T02:29:00.635Z,11
2016-03-31T02:30:00.653Z,11.1
2016-03-31T02:31:00.671Z,11.04
2016-03-31T02:32:00.689Z,11.07
2016-03-31T02:33:00.724Z,11.05
2016-03-31T02:34:00.727Z,11.04
2016-03-31T02:35:00.744Z,11.08
2016-03-31T02:36:00.763Z,11.12
2016-03-31T02:37:00.750Z,11.02
2016-03-31T02:38:00.768Z,11.08
2016-03-31T02:39:00.802Z,11.05
2016-03-31T02:40:00.805Z,11.11
2016-03-31T02:41:00.823Z,11
2016-03-31T02:42:00.108Z,11
2016-03-31T02:43:00.844Z,11.04
2016-03-31T02:44:00.863Z,11
2016-03-31T02:45:00.881Z,11.07
2016-03-31T02:46:00.900Z,11.1
2016-03-31T02:47:00.949Z,11.04
2016-03-31T02:48:00.936Z,10.99
2016-03-31T02:49:00.189Z,11.08
2016-03-31T02:50:00.957Z,11
2016-03-31T02:51:00.975Z,11
2016-03-31T02:52:00.979Z,11.05
2016-03-31T02:53:01.012Z,11.05
2016-03-31T02:54:01.031Z,11.08
2016-03-31T02:55:01.033Z,11.04
2016-03-31T02:56:01.036Z,11.07
2016-03-31T02:57:01.086Z,11.05
2016-03-31T02:58:01.072Z,11.05
2016-03-31T02:59:01.106Z,11.08
2016-03-31T03:00:01.094Z,11.05
2016-03-31T03:01:01.142Z,11.05
2016-03-31T03:02:01.146Z,11.07
2016-03-31T03:03:01.148Z,11.08
2016-03-31T03:04:01.183Z,11.1
2016-03-31T03:05:01.185Z,11
2016-03-31T03:06:01.203Z,11.08
2016-03-31T03:07:01.206Z,11.04
2016-03-31T03:08:01.230Z,10.99
2016-03-31T03:09:01.206Z,11.08
2016-03-31T03:10:01.255Z,11.04
2016-03-31T03:11:01.244Z,11.07
2016-03-31T03:12:01.261Z,11.08
2016-03-31T03:13:01.295Z,11
2016-03-31T03:14:01.314Z,11.08
2016-03-31T03:15:01.316Z,11.08
2016-03-31T03:16:01.350Z,11.05
2016-03-31T03:17:01.338Z,11.07
2016-03-31T03:18:01.356Z,11.12
2016-03-31T03:19:01.358Z,11.14
2016-03-31T03:20:01.376Z,11.08
2016-03-31T03:21:01.411Z,11.12
2016-03-31T03:22:01.413Z,11.18
2016-03-31T03:23:01.447Z,11.18
2016-03-31T03:24:01.466Z,11.15
2016-03-31T03:25:01.468Z,11.22
2016-03-31T03:26:01.487Z,11.22
2016-03-31T03:27:01.489Z,11.22
2016-03-31T03:28:01.493Z,11.19
2016-03-31T03:29:01.542Z,11.25
2016-03-31T03:30:01.528Z,11.3
2016-03-31T03:31:01.579Z,11.32
2016-03-31T03:32:01.581Z,11.44
2016-03-31T03:33:01.584Z,11.35
2016-03-31T03:34:01.602Z,11.4
2016-03-31T03:35:01.620Z,11.41
2016-03-31T03:36:01.653Z,11.4
2016-03-31T03:37:01.641Z,11.52
2016-03-31T03:38:01.691Z,11.45
2016-03-31T03:39:01.708Z,11.5
2016-03-31T03:40:01.696Z,11.52
2016-03-31T03:41:01.730Z,11.51
2016-03-31T03:42:01.717Z,11.45
2016-03-31T03:43:01.750Z,11.54
2016-03-31T03:44:01.739Z,11.48
2016-03-31T03:45:01.819Z,11.54
2016-03-31T03:46:01.774Z,11.57
2016-03-31T03:47:01.809Z,11.54
2016-03-31T03:48:01.811Z,11.59
2016-03-31T03:49:01.814Z,11.68
2016-03-31T03:50:01.863Z,11.66
2016-03-31T03:51:01.851Z,11.65
2016-03-31T03:52:01.885Z,11.66
2016-03-31T03:53:01.903Z,11.65
2016-03-31T03:54:01.922Z,11.65
2016-03-31T03:55:01.924Z,11.62
2016-03-31T03:56:01.942Z,11.63
2016-03-31T03:57:01.946Z,11.77
2016-03-31T03:58:01.995Z,11.7
2016-03-31T03:59:01.966Z,11.7
2016-03-31T04:00:02.046Z,11.73
2016-03-31T04:01:02.003Z,11.77
2016-03-31T04:02:02.020Z,11.75
2016-03-31T04:03:02.039Z,11.69
2016-03-31T04:04:02.057Z,11.7
2016-03-31T04:05:02.076Z,11.7
2016-03-31T04:06:02.109Z,11.7
2016-03-31T04:07:02.112Z,11.81
2016-03-31T04:08:02.115Z,11.8
2016-03-31T04:09:02.133Z,11.8
2016-03-31T04:10:02.167Z,11.75
2016-03-31T04:11:02.170Z,11.8
2016-03-31T04:12:02.198Z,11.83
2016-03-31T04:13:02.540Z,11.83
2016-03-31T04:14:02.571Z,11.75
2016-03-31T04:15:02.835Z,11.75
2016-03-31T04:16:02.274Z,11.77
2016-03-31T04:17:02.230Z,11.78
2016-03-31T04:18:02.232Z,11.86
2016-03-31T04:19:02.283Z,11.78
2016-03-31T04:20:02.269Z,11.78
2016-03-31T04:21:02.318Z,11.86
2016-03-31T04:22:02.306Z,11.84
2016-03-31T04:23:02.356Z,11.81
2016-03-31T04:24:02.343Z,11.81
2016-03-31T04:25:02.377Z,11.77
2016-03-31T04:26:02.433Z,11.8
2016-03-31T04:27:02.518Z,11.75
2016-03-31T04:28:02.574Z,11.77
2016-03-31T04:29:02.676Z,11.83
2016-03-31T04:30:02.720Z,11.86
2016-03-31T04:31:02.741Z,11.84
2016-03-31T04:32:02.763Z,11.86
2016-03-31T04:33:02.815Z,11.86
2016-03-31T04:34:02.853Z,11.86
2016-03-31T04:35:02.855Z,11.86
2016-03-31T04:36:02.926Z,11.86
2016-03-31T04:37:02.951Z,11.84
2016-03-31T04:38:02.929Z,11.77
2016-03-31T04:39:02.969Z,11.83
2016-03-31T04:40:02.977Z,11.78
2016-03-31T04:41:02.982Z,11.75
2016-03-31T04:42:03.035Z,11.81
2016-03-31T04:43:03.023Z,11.8
2016-03-31T04:44:03.060Z,11.8
2016-03-31T04:45:03.065Z,11.83
2016-03-31T04:46:03.084Z,11.84
2016-03-31T04:47:03.103Z,11.83
2016-03-31T04:48:03.123Z,11.84
2016-03-31T04:49:03.126Z,11.8
2016-03-31T04:50:03.162Z,11.88
2016-03-31T04:51:03.196Z,11.88
2016-03-31T04:52:03.183Z,11.86
2016-03-31T04:53:03.202Z,11.88
2016-03-31T04:54:03.205Z,11.86
2016-03-31T04:55:03.239Z,11.84
2016-03-31T04:56:03.242Z,11.9
2016-03-31T04:57:03.292Z,12.02
2016-03-31T04:58:03.264Z,12
2016-03-31T04:59:03.344Z,11.95
2016-03-31T05:00:03.300Z,12
2016-03-31T05:01:03.334Z,12.02
2016-03-31T05:02:03.336Z,12.02
2016-03-31T05:03:03.278Z,11.88
2016-03-31T05:04:03.374Z,11.88
2016-03-31T05:05:03.392Z,11.83
2016-03-31T05:06:03.395Z,11.97
2016-03-31T05:07:03.414Z,11.87
2016-03-31T05:08:03.431Z,11.88
2016-03-31T05:09:03.466Z,11.84
2016-03-31T05:10:03.468Z,11.88
2016-03-31T05:11:03.471Z,12
2016-03-31T05:12:03.489Z,11.95
2016-03-31T05:13:03.554Z,12
2016-03-31T05:14:03.557Z,11.91
2016-03-31T05:15:03.544Z,11.97
2016-03-31T05:16:03.546Z,11.99
2016-03-31T05:17:03.581Z,11.97
2016-03-31T05:18:03.599Z,12.1
2016-03-31T05:19:03.617Z,12.12
2016-03-31T05:20:03.621Z,12.15
2016-03-31T05:21:03.638Z,12.09
2016-03-31T05:22:03.657Z,12.2
2016-03-31T05:23:03.659Z,12.22
2016-03-31T05:24:03.678Z,12.18
2016-03-31T05:25:03.712Z,12.17
2016-03-31T05:26:03.730Z,12.27
2016-03-31T05:27:03.733Z,12.31
2016-03-31T05:28:03.751Z,12.31
2016-03-31T05:29:03.784Z,12.45
2016-03-31T05:30:03.788Z,12.43
2016-03-31T05:31:03.790Z,12.46
2016-03-31T05:32:03.824Z,12.5
2016-03-31T05:33:03.842Z,12.53
2016-03-31T05:34:03.861Z,12.58
2016-03-31T05:35:03.894Z,12.57
2016-03-31T05:36:03.897Z,12.58
2016-03-31T05:37:03.900Z,12.61
2016-03-31T05:38:03.933Z,12.62
2016-03-31T05:39:03.922Z,12.68
2016-03-31T05:40:03.955Z,12.61
2016-03-31T05:41:03.958Z,12.78
2016-03-31T05:42:03.976Z,12.75
2016-03-31T05:43:03.979Z,12.58
2016-03-31T05:44:04.012Z,12.7
2016-03-31T05:45:04.016Z,12.73
2016-03-31T05:46:04.033Z,12.76
2016-03-31T05:47:04.052Z,12.73
2016-03-31T05:48:04.070Z,12.78
2016-03-31T05:49:04.121Z,12.8
2016-03-31T05:50:04.107Z,12.86
2016-03-31T05:51:04.140Z,12.9
2016-03-31T05:52:04.160Z,12.82
2016-03-31T05:53:04.146Z,12.83
2016-03-31T05:54:04.165Z,12.86
2016-03-31T05:55:04.183Z,12.91
2016-03-31T05:56:04.201Z,12.94
2016-03-31T05:57:04.251Z,12.95
2016-03-31T05:58:04.253Z,13
2016-03-31T05:59:04.256Z,13.05
2016-03-31T06:00:04.258Z,13.03
2016-03-31T06:01:04.293Z,13.01
2016-03-31T06:02:04.311Z,13.12
2016-03-31T06:03:04.314Z,13.11
2016-03-31T06:04:04.332Z,13.05
2016-03-31T06:05:04.350Z,13.12
2016-03-31T06:06:04.369Z,13.16
2016-03-31T06:07:04.372Z,13.12
2016-03-31T06:08:04.389Z,13.25
2016-03-31T06:09:04.408Z,13.31
2016-03-31T06:10:04.442Z,13.3
2016-03-31T06:11:04.445Z,13.31
2016-03-31T06:12:04.478Z,13.33
2016-03-31T06:13:04.481Z,13.27
2016-03-31T06:14:04.500Z,13.35
2016-03-31T06:15:04.361Z,13.33
2016-03-31T06:16:04.536Z,13.31
2016-03-31T06:17:04.555Z,13.31
2016-03-31T06:18:04.573Z,13.33
2016-03-31T06:19:04.607Z,13.23
2016-03-31T06:20:04.609Z,13.27
2016-03-31T06:21:04.627Z,13.33
2016-03-31T06:22:04.630Z,13.49
2016-03-31T06:23:04.649Z,13.42
2016-03-31T06:24:04.651Z,13.47
2016-03-31T06:25:04.685Z,13.65
2016-03-31T06:26:04.688Z,13.56
2016-03-31T06:27:04.754Z,13.68
2016-03-31T06:28:04.725Z,13.7
2016-03-31T06:29:04.759Z,13.72
2016-03-31T06:30:04.762Z,13.83
2016-03-31T06:31:04.795Z,13.89
2016-03-31T06:32:04.798Z,13.96
2016-03-31T06:33:04.831Z,13.97
2016-03-31T06:34:04.835Z,14.04
2016-03-31T06:35:04.837Z,14.15
2016-03-31T06:36:04.855Z,14.14
2016-03-31T06:37:04.906Z,14.22
2016-03-31T06:38:04.908Z,14.25
2016-03-31T06:39:04.942Z,14.15
2016-03-31T06:40:04.929Z,14.29
2016-03-31T06:41:04.963Z,14.43
2016-03-31T06:42:04.966Z,14.55
2016-03-31T06:43:05.015Z,14.58
2016-03-31T06:44:05.018Z,14.72
2016-03-31T06:45:05.036Z,14.86
2016-03-31T06:46:05.038Z,14.92
2016-03-31T06:47:05.073Z,15.02
2016-03-31T06:48:05.091Z,14.86
2016-03-31T06:49:05.124Z,15.04
2016-03-31T06:50:05.113Z,15.11
2016-03-31T06:51:05.146Z,15.18
2016-03-31T06:52:05.148Z,15.18
2016-03-31T06:53:05.183Z,15.18
2016-03-31T06:54:05.185Z,15.19
2016-03-31T06:55:05.219Z,15.24
2016-03-31T06:56:05.222Z,15.19
2016-03-31T06:57:05.256Z,15.22
2016-03-31T06:58:05.274Z,15.21
2016-03-31T06:59:05.276Z,15.28
2016-03-31T07:00:05.654Z,15.24
2016-03-31T07:01:05.314Z,15.29
2016-03-31T07:02:05.347Z,15.28
2016-03-31T07:03:05.366Z,15.35
2016-03-31T07:04:05.384Z,15.31
2016-03-31T07:05:05.386Z,15.4
2016-03-31T07:06:05.421Z,15.29
2016-03-31T07:07:05.533Z,15.42
2016-03-31T07:08:05.447Z,15.51
2016-03-31T07:09:05.464Z,15.4
2016-03-31T07:10:05.483Z,15.49
2016-03-31T07:11:05.533Z,15.42
2016-03-31T07:12:05.519Z,15.36
2016-03-31T07:13:05.554Z,15.49
2016-03-31T07:14:05.557Z,15.54
2016-03-31T07:15:05.574Z,15.52
2016-03-31T07:16:05.609Z,15.57
2016-03-31T07:17:05.643Z,15.57
2016-03-31T07:18:05.660Z,15.64
2016-03-31T07:19:05.664Z,15.95
2016-03-31T07:20:05.682Z,16.15
2016-03-31T07:21:05.700Z,16.35
2016-03-31T07:22:05.734Z,16.31
2016-03-31T07:23:05.738Z,16.64
2016-03-31T07:24:05.755Z,16.76
2016-03-31T07:25:05.773Z,16.9
2016-03-31T07:26:05.807Z,17.16
2016-03-31T07:27:05.842Z,17.31
2016-03-31T07:28:05.844Z,17.38
2016-03-31T07:29:05.862Z,17.46
2016-03-31T07:30:05.865Z,17.64
2016-03-31T07:31:05.898Z,17.9
2016-03-31T07:32:05.917Z,18.19
2016-03-31T07:33:05.951Z,18.55
2016-03-31T07:34:05.970Z,18.75
2016-03-31T07:35:05.988Z,19.02
2016-03-31T07:36:06.006Z,19.16
2016-03-31T07:37:06.025Z,19.26
2016-03-31T07:38:06.058Z,19.21
2016-03-31T07:39:06.077Z,19.21
2016-03-31T07:40:06.095Z,19.44
2016-03-31T07:41:06.113Z,19.64
2016-03-31T07:42:06.147Z,19.99
2016-03-31T07:43:06.150Z,20.31
2016-03-31T07:44:06.200Z,20.22
2016-03-31T07:45:06.233Z,20.44
2016-03-31T07:46:06.221Z,20.67
2016-03-31T07:47:06.863Z,20.88
2016-03-31T07:48:06.274Z,21.05
2016-03-31T07:49:06.322Z,21.25
2016-03-31T07:50:06.325Z,21.52
2016-03-31T07:51:06.375Z,21.79
2016-03-31T07:52:06.393Z,22.15
2016-03-31T07:53:06.412Z,22.59
2016-03-31T07:54:06.414Z,22.94
2016-03-31T07:55:06.448Z,23.08
2016-03-31T07:56:06.513Z,23.03
2016-03-31T07:57:06.531Z,23.2
2016-03-31T07:58:06.534Z,23.34
2016-03-31T07:59:06.568Z,23.63
2016-03-31T08:00:06.602Z,23.99
2016-03-31T08:01:06.636Z,24.1
2016-03-31T08:02:06.639Z,24.4
2016-03-31T08:03:06.672Z,24.66
2016-03-31T08:04:06.691Z,24.92
2016-03-31T08:05:06.756Z,25.17
2016-03-31T08:06:06.759Z,25.51
2016-03-31T08:07:06.778Z,25.78
2016-03-31T08:08:06.827Z,25.91
2016-03-31T08:09:06.830Z,26.13
2016-03-31T08:10:06.879Z,26.29
2016-03-31T08:11:06.882Z,26.4
2016-03-31T08:12:06.931Z,26.59
2016-03-31T08:13:06.981Z,26.62
2016-03-31T08:14:06.983Z,27.21
2016-03-31T08:15:07.017Z,27.47
2016-03-31T08:16:07.035Z,27.6
2016-03-31T08:17:07.070Z,27.45
2016-03-31T08:18:07.088Z,27.17
2016-03-31T08:19:07.122Z,27.08
2016-03-31T08:20:07.155Z,27.11
2016-03-31T08:21:07.205Z,26.9
2016-03-31T08:22:07.208Z,27.18
2016-03-31T08:23:07.242Z,27.45
2016-03-31T08:24:07.276Z,27.25
2016-03-31T08:25:07.309Z,26.9
2016-03-31T08:26:07.328Z,26.93
2016-03-31T08:27:07.378Z,26.84
2016-03-31T08:28:07.395Z,27.18
2016-03-31T08:29:07.430Z,27.4
2016-03-31T08:30:07.479Z,27.59
2016-03-31T08:31:07.498Z,27.98
2016-03-31T08:32:07.531Z,28.05
2016-03-31T08:33:07.565Z,28.54
2016-03-31T08:34:07.600Z,28.66
2016-03-31T08:35:07.634Z,29.13
2016-03-31T08:36:07.683Z,29.27
2016-03-31T08:37:07.701Z,29.69
2016-03-31T08:38:07.892Z,29.97
2016-03-31T08:39:07.753Z,30.15
2016-03-31T08:40:07.773Z,30.03
2016-03-31T08:41:07.806Z,29.75
2016-03-31T08:42:07.840Z,29.72
2016-03-31T08:43:07.875Z,29.6
2016-03-31T08:44:07.924Z,29.72
2016-03-31T08:45:07.958Z,30.25
2016-03-31T08:46:08.008Z,30.47
2016-03-31T08:47:08.025Z,30
2016-03-31T08:48:08.028Z,29.9
2016-03-31T08:49:08.078Z,29.98
2016-03-31T08:50:08.111Z,29.91
2016-03-31T08:51:08.160Z,30.24
2016-03-31T08:52:08.179Z,30.55
2016-03-31T08:53:08.198Z,30.61
2016-03-31T08:54:08.247Z,31
2016-03-31T08:55:08.296Z,31.29
2016-03-31T08:56:08.299Z,31.65
2016-03-31T08:57:08.334Z,31.96
2016-03-31T08:58:08.368Z,32.37
2016-03-31T08:59:08.401Z,32.48
2016-03-31T09:00:08.435Z,32.55
2016-03-31T09:01:08.485Z,32.3
2016-03-31T09:02:08.551Z,32.01
2016-03-31T09:03:08.537Z,31.84
2016-03-31T09:04:08.586Z,31.77
2016-03-31T09:05:08.606Z,31.37
2016-03-31T09:06:08.639Z,31.31
2016-03-31T09:07:08.672Z,31.37
2016-03-31T09:08:08.722Z,31.39
2016-03-31T09:09:08.772Z,31.18
2016-03-31T09:10:08.790Z,31.18
2016-03-31T09:11:08.824Z,31.21
2016-03-31T09:12:08.842Z,31.28
2016-03-31T09:13:08.877Z,31.31
2016-03-31T09:14:08.941Z,31.31
2016-03-31T09:15:08.944Z,31.14
2016-03-31T09:16:08.994Z,31.07
2016-03-31T09:17:09.013Z,30.96
2016-03-31T09:18:09.062Z,30.78
2016-03-31T09:19:09.096Z,30.78
2016-03-31T09:20:09.130Z,30.8
2016-03-31T09:21:09.352Z,30.9
2016-03-31T09:22:09.197Z,30.94
2016-03-31T09:23:09.216Z,30.96
2016-03-31T09:24:09.249Z,31.17
2016-03-31T09:25:09.128Z,31.22
2016-03-31T09:26:09.349Z,31.39
2016-03-31T09:27:09.352Z,31.24
2016-03-31T09:28:09.418Z,31.06
2016-03-31T09:29:09.435Z,30.84
2016-03-31T09:30:09.454Z,30.72
2016-03-31T09:31:09.518Z,30.77
2016-03-31T09:32:09.521Z,30.9
2016-03-31T09:33:09.587Z,31.03
2016-03-31T09:34:09.605Z,31.17
2016-03-31T09:35:09.623Z,31.14
2016-03-31T09:36:09.657Z,31.42
2016-03-31T09:37:09.692Z,31.73
2016-03-31T09:38:09.725Z,31.7
2016-03-31T09:39:09.759Z,32.16
2016-03-31T09:40:09.825Z,32.33
2016-03-31T09:41:09.828Z,32.52
2016-03-31T09:42:09.845Z,32.89
2016-03-31T09:43:09.895Z,33.12
2016-03-31T09:44:09.929Z,33.39
2016-03-31T09:45:09.964Z,33.46
2016-03-31T09:46:10.012Z,33.42
2016-03-31T09:47:10.014Z,33.39
2016-03-31T09:48:10.142Z,33.24
2016-03-31T09:49:10.098Z,33.17
2016-03-31T09:50:10.132Z,33.31
2016-03-31T09:51:10.166Z,33.61
2016-03-31T09:52:10.200Z,33.71
2016-03-31T09:53:10.235Z,33.59
2016-03-31T09:54:10.300Z,33.59
2016-03-31T09:55:10.286Z,33.5
2016-03-31T09:56:10.180Z,33.4
2016-03-31T09:57:10.355Z,33.49
2016-03-31T09:58:10.388Z,33.46
2016-03-31T09:59:10.438Z,33.57
2016-03-31T10:00:10.456Z,33.32
2016-03-31T10:01:10.506Z,33.49
2016-03-31T10:02:10.540Z,33.34
2016-03-31T10:03:10.621Z,33.46
2016-03-31T10:04:10.624Z,33.39
2016-03-31T10:05:10.642Z,33.57
2016-03-31T10:06:10.675Z,33.67
2016-03-31T10:07:10.709Z,33.81
2016-03-31T10:08:10.743Z,33.89
2016-03-31T10:09:10.778Z,34.05
2016-03-31T10:10:10.699Z,34.13
2016-03-31T10:11:10.890Z,34.18
2016-03-31T10:12:10.876Z,34.2
2016-03-31T10:13:10.925Z,34.13
2016-03-31T10:14:10.944Z,34.29
2016-03-31T10:15:10.994Z,34.25
2016-03-31T10:16:11.028Z,34.24
2016-03-31T10:17:11.062Z,33.95
2016-03-31T10:18:11.158Z,33.86
2016-03-31T10:19:11.130Z,33.87
2016-03-31T10:20:11.180Z,34.03
2016-03-31T10:21:11.197Z,34.08
2016-03-31T10:22:11.232Z,33.87
2016-03-31T10:23:11.266Z,33.84
2016-03-31T10:24:11.300Z,33.57
2016-03-31T10:25:11.333Z,33.37
2016-03-31T10:26:11.367Z,33.46
2016-03-31T10:27:11.417Z,33.31
2016-03-31T10:28:11.466Z,33.27
2016-03-31T10:29:11.485Z,33.28
2016-03-31T10:30:11.518Z,33.36
2016-03-31T10:31:11.552Z,33.28
2016-03-31T10:32:11.587Z,33.27
2016-03-31T10:33:11.840Z,33.28
2016-03-31T10:34:11.654Z,33.14
2016-03-31T10:35:11.548Z,33.3
2016-03-31T10:36:11.722Z,33.45
2016-03-31T10:37:11.771Z,33.64
2016-03-31T10:38:11.821Z,33.81
2016-03-31T10:39:11.856Z,34.01
2016-03-31T10:40:11.874Z,34.16
2016-03-31T10:41:11.907Z,34.29
2016-03-31T10:42:11.926Z,34.25
2016-03-31T10:43:11.991Z,34.1
2016-03-31T10:44:11.995Z,33.99
2016-03-31T10:45:12.059Z,33.98
2016-03-31T10:46:12.109Z,33.92
2016-03-31T10:47:12.142Z,34.03
2016-03-31T10:48:12.083Z,34.16
2016-03-31T10:49:12.039Z,34.2
2016-03-31T10:50:12.228Z,34.29
2016-03-31T10:51:12.263Z,34.4
2016-03-31T10:52:12.281Z,34.61
2016-03-31T10:53:12.315Z,34.51
2016-03-31T10:54:12.364Z,34.32
2016-03-31T10:55:12.399Z,34.29
2016-03-31T10:56:12.432Z,34.08
2016-03-31T10:57:12.466Z,33.8
2016-03-31T10:58:12.516Z,33.62
2016-03-31T10:59:12.378Z,33.37
2016-03-31T11:00:12.569Z,33.3
2016-03-31T11:01:12.618Z,33.15
2016-03-31T11:02:12.652Z,33.27
2016-03-31T11:03:12.686Z,33.28
2016-03-31T11:04:12.704Z,33.47
2016-03-31T11:05:12.738Z,33.3
2016-03-31T11:06:12.757Z,33.09
2016-03-31T11:07:12.649Z,33.04
2016-03-31T11:08:12.840Z,32.9
2016-03-31T11:09:12.873Z,33.11
2016-03-31T11:10:12.892Z,33.37
2016-03-31T11:11:12.957Z,33.53
2016-03-31T11:12:12.991Z,33.59
2016-03-31T11:13:12.993Z,33.62
2016-03-31T11:14:13.059Z,33.73
2016-03-31T11:15:13.078Z,34.01
2016-03-31T11:16:13.127Z,34.05
2016-03-31T11:17:13.161Z,34.25
2016-03-31T11:18:13.257Z,34.29
2016-03-31T11:19:13.245Z,33.98
2016-03-31T11:20:13.247Z,33.49
2016-03-31T11:21:13.281Z,33.14
2016-03-31T11:22:13.331Z,33.19
2016-03-31T11:23:13.349Z,33.31
2016-03-31T11:24:13.398Z,33.4
2016-03-31T11:25:13.417Z,33.4
2016-03-31T11:26:13.451Z,33.43
2016-03-31T11:27:13.485Z,33.45
2016-03-31T11:28:13.519Z,33.53
2016-03-31T11:29:13.552Z,32.97
2016-03-31T11:30:13.586Z,32.53
2016-03-31T11:31:13.651Z,31.84
2016-03-31T11:32:13.654Z,31.59
2016-03-31T11:33:13.844Z,31.58
2016-03-31T11:34:13.721Z,31.43
2016-03-31T11:35:13.788Z,31.17
2016-03-31T11:36:13.790Z,31.06
2016-03-31T11:37:13.823Z,30.96
2016-03-31T11:38:13.857Z,31
2016-03-31T11:39:13.892Z,31
2016-03-31T11:40:13.910Z,31.05
2016-03-31T11:41:13.944Z,31.12
2016-03-31T11:42:13.993Z,31.03
2016-03-31T11:43:14.028Z,30.83
2016-03-31T11:44:14.076Z,30.81
2016-03-31T11:45:14.111Z,30.65
2016-03-31T11:46:14.129Z,30.55
2016-03-31T11:47:14.148Z,30.48
2016-03-31T11:48:14.384Z,30.4
2016-03-31T11:49:14.215Z,30.28
2016-03-31T11:50:14.249Z,30.24
2016-03-31T11:51:14.283Z,30.23
2016-03-31T11:52:14.317Z,30.21
2016-03-31T11:53:14.351Z,30.15
2016-03-31T11:54:14.386Z,29.91
2016-03-31T11:55:14.403Z,29.69
2016-03-31T11:56:14.453Z,29.51
2016-03-31T11:57:14.455Z,29.38
2016-03-31T11:58:14.505Z,29.39
2016-03-31T11:59:14.524Z,29.44
2016-03-31T12:00:14.573Z,29.42
2016-03-31T12:01:14.592Z,29.59
2016-03-31T12:02:14.610Z,29.78
2016-03-31T12:03:14.707Z,29.72
2016-03-31T12:04:14.522Z,29.91
2016-03-31T12:05:14.728Z,30.12
2016-03-31T12:06:14.746Z,30.21
2016-03-31T12:07:14.780Z,30.32
2016-03-31T12:08:14.813Z,30.3
2016-03-31T12:09:14.879Z,30.24
2016-03-31T12:10:14.881Z,30.21
2016-03-31T12:11:14.899Z,29.94
2016-03-31T12:12:14.934Z,29.88
2016-03-31T12:13:14.968Z,29.79
2016-03-31T12:14:15.002Z,29.61
2016-03-31T12:15:15.035Z,29.42
2016-03-31T12:16:14.913Z,29.57
2016-03-31T12:17:15.087Z,29.76
2016-03-31T12:18:14.903Z,29.73
2016-03-31T12:19:15.155Z,29.72
2016-03-31T12:20:15.190Z,29.71
2016-03-31T12:21:15.223Z,29.59
2016-03-31T12:22:15.258Z,29.32
2016-03-31T12:23:15.276Z,29.36
2016-03-31T12:24:15.326Z,29.57
2016-03-31T12:25:15.344Z,29.59
2016-03-31T12:26:15.378Z,29.69
2016-03-31T12:27:15.411Z,29.5
2016-03-31T12:28:15.430Z,29.53
2016-03-31T12:29:15.463Z,29.38
2016-03-31T12:30:15.497Z,29.34
2016-03-31T12:31:15.532Z,29.23
2016-03-31T12:32:15.566Z,29.29
2016-03-31T12:33:15.521Z,29.39
2016-03-31T12:34:15.618Z,29.53
2016-03-31T12:35:15.651Z,29.61
2016-03-31T12:36:15.670Z,29.78
2016-03-31T12:37:15.719Z,29.72
2016-03-31T12:38:15.738Z,29.69
2016-03-31T12:39:15.788Z,29.57
2016-03-31T12:40:15.806Z,29.61
2016-03-31T12:41:15.840Z,29.81
2016-03-31T12:42:15.904Z,29.97
2016-03-31T12:43:15.892Z,29.84
2016-03-31T12:44:15.926Z,29.87
2016-03-31T12:45:15.976Z,29.97
2016-03-31T12:46:15.978Z,29.95
2016-03-31T12:47:16.012Z,30.03
2016-03-31T12:48:16.061Z,30.02
2016-03-31T12:49:16.111Z,29.81
2016-03-31T12:50:16.129Z,29.79
2016-03-31T12:51:16.164Z,29.65
2016-03-31T12:52:16.182Z,29.44
2016-03-31T12:53:16.216Z,29.39
2016-03-31T12:54:16.250Z,29.1
2016-03-31T12:55:16.283Z,29.01
2016-03-31T12:56:16.317Z,28.88
2016-03-31T12:57:16.352Z,28.97
2016-03-31T12:58:16.370Z,28.89